North Robinson, OH

2:04 PM EDT on August 03, 2015 (GMT -0400)
Glade Ave. | | Change Station
CLOSE
Current Station
Personal Weather Station
Location: Galion, OH
Elevation: 1135 ft
Nearby Weather Stations

Elev 1135 ft 40.73 °N, 82.82 °W | Updated 31 seconds ago

Partly Cloudy
Partly Cloudy
75.4 °F
Feels Like 76 °F
N
4.9
Wind Variable Wind from WSW
Gusts 7.4 mph

Today
High -- | Low -- °F
--% Chance of Precip.
Yesterday
High -- | Low -- °F
Precip. -- in
6:29 AM 8:45 PM
Waning Gibbous, 85% visible
Pressure 29.83 in
Visibility 10.0 miles
Clouds Few 4000 ft
Mostly Cloudy 4800 ft
Mostly Cloudy 5500 ft
Heat Index 76 °F
Dew Point 69 °F
Humidity 80%
Rainfall 0.76 in
Snow Depth Not available.
UV 4.0 out of 12
Pollen 4.70 out of 12
Air Quality Not available.
Flu Activity Not available.
METAR KMNN 031753Z AUTO 28012G19KT 10SM FEW040 BKN048 BKN055 26/19 A2985 RMK AO2 SLP102 T02610189 10261 20172 50003 TSNO

More Conditions Fewer Conditions

Pressure 29.83 in
Visibility 10.0 miles
Clouds Few 4000 ft
Mostly Cloudy 4800 ft
Mostly Cloudy 5500 ft
Heat Index 76 °F
Dew Point 69 °F
Humidity 80%
Rainfall 0.76 in
Snow Depth Not available.
UV 4.0 out of 12
Pollen 4.70 out of 12
Air Quality Not available.
Flu Activity Not available.
METAR KMNN 031753Z AUTO 28012G19KT 10SM FEW040 BKN048 BKN055 26/19 A2985 RMK AO2 SLP102 T02610189 10261 20172 50003 TSNO

More Conditions Fewer Conditions

10-Day Weather Forecast

×

Almanac

Astronomy

Aug. 03, 2015 Rise Set
Actual Time
Civil Twilight
Nautical Twilight
Astronomical Twilight
Moon
Length of Visible Light
Length of Day
Tomorrow will be .
, % of the Moon is Illuminated

Today's Extremes

State Highs State Lows

Community

WunderPhotos

Upload Photos

1,843,696 photos uploaded!

WunderBlogs® & News

Nearby

Air Quality

  Air Quality AQ Index Pollutant
Not available.

Snow Depth

Station Depth Elevation

Earthquake Activity

City Distance Mag. Time & Date
Minimum magnitude displayed is 2.5.

Coastal Water Temperatures

Place Temperature

Stations

Nearby Weather Stations

Station Location Temp. Windchill Dew Point Humidity Wind Precip. Elev Updated Type